createdAt,value
2018-01-30T00:01:58.903Z,3.57
2018-01-30T00:04:26.348Z,3.17
2018-01-30T00:06:53.799Z,4.13
2018-01-30T00:09:21.267Z,3.63
2018-01-30T00:11:49.028Z,3.57
2018-01-30T00:14:16.484Z,3.20
2018-01-30T00:16:44.041Z,3.93
2018-01-30T00:19:11.459Z,3.07
2018-01-30T00:21:39.676Z,4.37
2018-01-30T00:24:07.144Z,4.57
2018-01-30T00:26:34.720Z,3.60
2018-01-30T00:29:03.072Z,4.57
2018-01-30T00:31:30.505Z,4.30
2018-01-30T00:33:57.942Z,3.67
2018-01-30T00:36:27.084Z,3.97
2018-01-30T00:38:54.580Z,3.67
2018-01-30T00:41:22.020Z,4.73
2018-01-30T00:43:49.444Z,4.07
2018-01-30T00:46:16.915Z,3.73
2018-01-30T00:48:44.462Z,4.57
2018-01-30T00:51:11.868Z,4.10
2018-01-30T00:53:40.065Z,4.53
2018-01-30T00:56:08.375Z,3.77
2018-01-30T00:58:35.836Z,4.80
2018-01-30T01:01:03.264Z,4.33
2018-01-30T01:03:31.768Z,5.03
2018-01-30T01:05:59.232Z,3.57
2018-01-30T01:08:26.660Z,4.13
2018-01-30T01:10:54.096Z,4.30
2018-01-30T01:13:22.293Z,5.00
2018-01-30T01:15:49.716Z,4.43
2018-01-30T01:18:17.157Z,3.90
2018-01-30T01:20:44.784Z,4.07
2018-01-30T01:23:12.200Z,4.07
2018-01-30T01:25:40.728Z,5.33
2018-01-30T01:28:08.185Z,3.43
2018-01-30T01:30:35.624Z,3.93
2018-01-30T01:33:03.056Z,4.30
2018-01-30T01:35:31.253Z,4.23
2018-01-30T01:37:58.736Z,4.63
2018-01-30T01:40:26.191Z,4.03
2018-01-30T01:42:53.647Z,5.10
2018-01-30T01:45:21.075Z,5.07
2018-01-30T01:47:48.520Z,4.00
2018-01-30T01:50:16.712Z,4.20
2018-01-30T01:52:44.196Z,4.00
2018-01-30T01:55:11.651Z,4.30
2018-01-30T01:57:39.076Z,4.27
2018-01-30T02:00:06.568Z,4.13
2018-01-30T02:02:34.024Z,4.37
2018-01-30T02:05:01.487Z,3.93
2018-01-30T02:07:28.910Z,3.23
2018-01-30T02:09:56.422Z,4.13
2018-01-30T02:12:23.862Z,4.03
2018-01-30T02:14:51.294Z,3.50
2018-01-30T02:17:19.071Z,3.63
2018-01-30T02:19:46.496Z,4.10
2018-01-30T02:22:14.707Z,3.93
2018-01-30T02:24:42.162Z,3.90
2018-01-30T02:27:09.616Z,3.47
2018-01-30T02:29:37.048Z,3.80
2018-01-30T02:32:04.541Z,3.17
2018-01-30T02:34:31.964Z,5.30
2018-01-30T02:36:59.388Z,4.03
2018-01-30T02:39:26.822Z,5.30
2018-01-30T02:41:54.267Z,4.23
2018-01-30T02:44:21.714Z,4.93
2018-01-30T02:46:49.148Z,4.40
2018-01-30T02:49:16.637Z,4.60
2018-01-30T02:51:44.086Z,4.83
2018-01-30T02:54:11.536Z,5.50
2018-01-30T02:56:39.008Z,4.53
2018-01-30T02:59:06.431Z,4.83
2018-01-30T03:01:33.906Z,5.60
2018-01-30T03:04:01.372Z,5.30
2018-01-30T03:06:28.831Z,5.13
2018-01-30T03:08:56.273Z,5.67
2018-01-30T03:11:23.736Z,6.50
2018-01-30T03:13:51.136Z,6.07
2018-01-30T03:16:18.664Z,4.80
2018-01-30T03:18:46.108Z,4.90
2018-01-30T03:21:13.511Z,5.90
2018-01-30T03:23:40.955Z,6.40
2018-01-30T03:26:09.143Z,6.27
2018-01-30T03:28:38.077Z,6.37
2018-01-30T03:31:05.554Z,6.17
2018-01-30T03:33:32.988Z,6.37
2018-01-30T03:36:00.476Z,6.67
2018-01-30T03:38:28.228Z,6.23
2018-01-30T03:40:55.702Z,7.40
2018-01-30T03:43:23.124Z,6.03
2018-01-30T03:45:50.558Z,7.17
2018-01-30T03:48:18.790Z,6.43
2018-01-30T03:50:46.235Z,6.80
2018-01-30T03:53:13.688Z,7.00
2018-01-30T03:55:41.139Z,7.70
2018-01-30T03:58:08.540Z,8.60
2018-01-30T04:00:36.060Z,7.57
2018-01-30T04:03:03.538Z,6.63
2018-01-30T04:05:30.975Z,7.43
2018-01-30T04:07:58.434Z,7.97
2018-01-30T04:10:25.889Z,8.30
2018-01-30T04:12:53.316Z,7.30
2018-01-30T04:15:20.806Z,7.97
2018-01-30T04:17:48.379Z,8.37
2018-01-30T04:20:15.809Z,8.37
2018-01-30T04:22:43.240Z,8.60
2018-01-30T04:25:11.428Z,8.53
2018-01-30T04:27:38.856Z,7.23
2018-01-30T04:30:06.377Z,8.30
2018-01-30T04:32:33.816Z,8.57
2018-01-30T04:35:01.223Z,9.00
2018-01-30T04:37:28.648Z,7.90
2018-01-30T04:39:56.189Z,8.20
2018-01-30T04:42:23.663Z,8.00
2018-01-30T04:44:51.115Z,9.00
2018-01-30T04:47:18.560Z,7.40
2018-01-30T04:49:46.025Z,8.10
2018-01-30T04:52:13.500Z,9.03
2018-01-30T04:54:41.047Z,9.27
2018-01-30T04:57:08.477Z,9.93
2018-01-30T04:59:35.952Z,9.70
2018-01-30T05:02:03.387Z,8.70
2018-01-30T05:04:30.882Z,9.70
2018-01-30T05:06:58.313Z,9.40
2018-01-30T05:09:25.735Z,9.57
2018-01-30T05:11:53.928Z,8.67
2018-01-30T05:14:21.424Z,9.40
2018-01-30T05:16:48.853Z,9.60
2018-01-30T05:19:16.284Z,10.20
2018-01-30T05:21:44.496Z,9.77
2018-01-30T05:24:11.924Z,10.20
2018-01-30T05:26:39.420Z,10.03
2018-01-30T05:29:06.867Z,10.90
2018-01-30T05:31:34.291Z,11.77
2018-01-30T05:34:02.538Z,12.03
2018-01-30T05:36:29.933Z,12.40
2018-01-30T05:38:57.410Z,11.27
2018-01-30T05:41:24.836Z,12.07
2018-01-30T05:43:53.274Z,10.53
2018-01-30T05:46:20.680Z,10.50
2018-01-30T05:48:48.108Z,11.47
2018-01-30T05:51:15.548Z,12.47
2018-01-30T05:53:42.976Z,11.77
2018-01-30T05:56:10.405Z,11.83
2018-01-30T05:58:38.721Z,10.70
2018-01-30T06:01:06.185Z,10.33
2018-01-30T06:03:33.645Z,11.43
2018-01-30T06:06:01.092Z,11.33
2018-01-30T06:08:28.517Z,10.87
2018-01-30T06:10:56.011Z,11.60
2018-01-30T06:13:23.557Z,13.47
2018-01-30T06:15:51.024Z,11.93
2018-01-30T06:18:18.459Z,10.40
2018-01-30T06:20:45.917Z,11.50
2018-01-30T06:23:14.453Z,13.53
2018-01-30T06:25:41.868Z,12.30
2018-01-30T06:28:09.323Z,12.30
2018-01-30T06:30:36.754Z,12.70
2018-01-30T06:33:04.964Z,11.50
2018-01-30T06:35:32.407Z,13.03
2018-01-30T06:37:59.873Z,13.00
2018-01-30T06:40:27.312Z,11.70
2018-01-30T06:42:54.797Z,12.20
2018-01-30T06:45:22.232Z,15.00
2018-01-30T06:47:49.665Z,13.50
2018-01-30T06:50:17.976Z,11.60
2018-01-30T06:52:45.413Z,11.90
2018-01-30T06:55:12.841Z,12.63
2018-01-30T06:57:40.275Z,11.50
2018-01-30T07:00:07.827Z,11.83
2018-01-30T07:02:35.260Z,11.27
2018-01-30T07:05:02.723Z,11.87
2018-01-30T07:07:30.159Z,11.23
2018-01-30T07:09:57.600Z,10.90
2018-01-30T07:12:25.803Z,11.30
2018-01-30T07:14:53.232Z,12.03
2018-01-30T07:17:21.432Z,13.17
2018-01-30T07:19:48.906Z,12.90
2018-01-30T07:22:16.356Z,10.20
2018-01-30T07:24:43.784Z,10.70
2018-01-30T07:27:11.268Z,10.73
2018-01-30T07:29:38.706Z,11.00
2018-01-30T07:32:06.128Z,10.37
2018-01-30T07:34:33.640Z,10.57
2018-01-30T07:37:01.072Z,9.87
2018-01-30T07:39:28.524Z,10.47
2018-01-30T07:41:56.012Z,10.97
2018-01-30T07:44:23.468Z,10.43
2018-01-30T07:46:50.919Z,10.20
2018-01-30T07:49:18.384Z,10.80
2018-01-30T07:51:45.868Z,9.90
2018-01-30T07:54:13.279Z,9.60
2018-01-30T07:56:40.733Z,10.60
2018-01-30T07:59:08.149Z,9.80
2018-01-30T08:01:35.668Z,8.80
2018-01-30T08:04:03.128Z,8.47
2018-01-30T08:06:30.597Z,9.33
2018-01-30T08:08:58.036Z,9.30
2018-01-30T08:11:25.503Z,10.00
2018-01-30T08:13:53.033Z,9.73
2018-01-30T08:16:20.474Z,8.10
2018-01-30T08:18:48.684Z,8.10
2018-01-30T08:21:16.107Z,8.57
2018-01-30T08:23:44.307Z,8.13
2018-01-30T08:26:11.732Z,7.40
2018-01-30T08:28:39.963Z,8.37
2018-01-30T08:31:07.411Z,7.83
2018-01-30T08:33:34.857Z,6.90
2018-01-30T08:36:02.285Z,7.40
2018-01-30T08:38:30.476Z,6.20
2018-01-30T08:40:57.912Z,6.30
2018-01-30T08:43:26.128Z,7.23
2018-01-30T08:45:53.586Z,6.90
2018-01-30T08:48:21.789Z,6.30
2018-01-30T08:50:49.364Z,6.37
2018-01-30T08:53:17.583Z,6.10
2018-01-30T08:55:45.044Z,7.10
2018-01-30T08:58:12.496Z,6.43
2018-01-30T09:00:39.941Z,5.70
2018-01-30T09:03:07.368Z,5.87
2018-01-30T09:05:35.594Z,6.50
2018-01-30T09:08:03.021Z,6.80
2018-01-30T09:10:30.460Z,5.40
2018-01-30T09:12:58.834Z,5.97
2018-01-30T09:15:26.448Z,6.50
2018-01-30T09:17:54.288Z,6.10
2018-01-30T09:20:22.472Z,5.50
2018-01-30T09:22:49.951Z,6.97
2018-01-30T09:25:17.392Z,5.57
2018-01-30T09:27:44.843Z,5.97
2018-01-30T09:30:12.301Z,6.20
2018-01-30T09:32:39.711Z,6.23
2018-01-30T09:35:07.952Z,5.77
2018-01-30T09:37:35.377Z,6.27
2018-01-30T09:40:02.824Z,7.50
2018-01-30T09:42:30.254Z,6.27
2018-01-30T09:44:58.484Z,6.13
2018-01-30T09:47:25.925Z,5.70
2018-01-30T09:49:53.400Z,5.97
2018-01-30T09:52:20.856Z,5.97
2018-01-30T09:54:48.293Z,5.47
2018-01-30T09:57:15.716Z,5.93
2018-01-30T09:59:43.941Z,5.37
2018-01-30T10:02:12.219Z,6.27
2018-01-30T10:04:39.676Z,6.37
2018-01-30T10:07:07.150Z,6.10
2018-01-30T10:09:34.588Z,6.10
2018-01-30T10:12:02.071Z,5.00
2018-01-30T10:14:29.500Z,5.47
2018-01-30T10:16:56.919Z,6.40
2018-01-30T10:19:25.120Z,5.47
2018-01-30T10:21:52.544Z,5.33
2018-01-30T10:24:21.080Z,5.57
2018-01-30T10:26:48.533Z,5.93
2018-01-30T10:29:15.990Z,5.17
2018-01-30T10:31:43.444Z,6.10
2018-01-30T10:34:10.876Z,6.20
2018-01-30T10:36:38.364Z,5.77
2018-01-30T10:39:05.812Z,5.23
2018-01-30T10:41:33.236Z,4.73
2018-01-30T10:44:01.445Z,4.87
2018-01-30T10:46:28.925Z,5.27
2018-01-30T10:48:56.373Z,5.47
2018-01-30T10:51:23.832Z,4.67
2018-01-30T10:53:51.273Z,5.10
2018-01-30T10:56:18.700Z,5.30
2018-01-30T10:58:46.916Z,4.87
2018-01-30T11:01:14.396Z,5.37
2018-01-30T11:03:41.827Z,4.40
2018-01-30T11:06:09.260Z,6.83
2018-01-30T11:08:36.701Z,5.10
2018-01-30T11:11:04.911Z,7.33
2018-01-30T11:13:32.348Z,5.80
2018-01-30T11:15:59.896Z,4.83
2018-01-30T11:18:28.091Z,4.67
2018-01-30T11:20:55.565Z,4.77
2018-01-30T11:23:23.032Z,4.80
2018-01-30T11:25:50.452Z,5.30
2018-01-30T11:28:17.933Z,5.20
2018-01-30T11:30:45.380Z,4.87
2018-01-30T11:33:12.801Z,4.60
2018-01-30T11:35:41.039Z,4.33
2018-01-30T11:38:08.436Z,5.13
2018-01-30T11:40:36.632Z,4.63
2018-01-30T11:43:04.108Z,4.57
2018-01-30T11:45:31.568Z,4.43
2018-01-30T11:47:59.001Z,4.87
2018-01-30T11:50:26.480Z,4.67
2018-01-30T11:52:53.948Z,4.03
2018-01-30T11:55:21.387Z,5.00
2018-01-30T11:57:48.854Z,4.20
2018-01-30T12:00:16.311Z,5.03
2018-01-30T12:02:43.772Z,4.23
2018-01-30T12:05:11.236Z,4.10
2018-01-30T12:07:38.675Z,4.30
2018-01-30T12:10:06.217Z,3.33
2018-01-30T12:12:33.607Z,3.60
2018-01-30T12:15:01.276Z,4.07
2018-01-30T12:17:28.712Z,4.33
2018-01-30T12:19:56.176Z,3.97
2018-01-30T12:22:23.618Z,4.20
2018-01-30T12:24:51.036Z,4.77
2018-01-30T12:27:19.269Z,4.03
2018-01-30T12:29:46.800Z,4.73
2018-01-30T12:32:14.305Z,4.57
2018-01-30T12:34:41.718Z,4.03
2018-01-30T12:37:09.225Z,5.00
2018-01-30T12:39:36.682Z,4.80
2018-01-30T12:42:04.108Z,5.47
2018-01-30T12:44:31.561Z,5.00
2018-01-30T12:46:59.037Z,5.33
2018-01-30T12:49:26.484Z,5.37
2018-01-30T12:51:54.285Z,5.97
2018-01-30T12:54:21.689Z,6.00
2018-01-30T12:56:49.158Z,5.70
2018-01-30T12:59:16.897Z,6.10
2018-01-30T13:01:44.320Z,5.67
2018-01-30T13:04:11.748Z,6.47
2018-01-30T13:06:39.200Z,5.27
2018-01-30T13:09:06.616Z,6.00
2018-01-30T13:11:34.129Z,6.47
2018-01-30T13:14:01.877Z,5.57
2018-01-30T13:16:29.325Z,6.43
2018-01-30T13:18:56.756Z,5.93
2018-01-30T13:21:24.240Z,5.93
2018-01-30T13:23:51.664Z,6.37
2018-01-30T13:26:19.152Z,6.45
2018-01-30T13:28:46.609Z,5.93
2018-01-30T13:31:14.020Z,5.30
2018-01-30T13:33:42.208Z,6.10
2018-01-30T13:36:09.644Z,5.63
2018-01-30T13:38:37.877Z,6.00
2018-01-30T13:41:05.300Z,6.10
2018-01-30T13:43:32.732Z,6.70
2018-01-30T13:46:00.968Z,5.60
2018-01-30T13:48:28.416Z,6.33
2018-01-30T13:50:55.886Z,6.20
2018-01-30T13:53:23.332Z,7.00
2018-01-30T13:55:50.787Z,6.90
2018-01-30T13:58:18.224Z,6.67
2018-01-30T14:00:45.648Z,8.67
2018-01-30T14:03:13.077Z,8.57
2018-01-30T14:05:40.616Z,8.70
2018-01-30T14:08:08.072Z,7.23
2018-01-30T14:10:35.548Z,6.13
2018-01-30T14:13:02.982Z,4.47
2018-01-30T14:15:30.449Z,4.40
2018-01-30T14:17:57.876Z,5.37
2018-01-30T14:20:25.308Z,4.77
2018-01-30T14:22:53.553Z,5.33
2018-01-30T14:25:20.981Z,6.37
2018-01-30T14:27:48.444Z,6.47
2018-01-30T14:30:15.884Z,5.53
2018-01-30T14:32:43.360Z,6.07
2018-01-30T14:35:10.802Z,6.63
2018-01-30T14:37:38.216Z,5.97
2018-01-30T14:40:07.189Z,6.43
2018-01-30T14:42:34.636Z,5.70
2018-01-30T14:45:02.079Z,5.80
2018-01-30T14:47:29.503Z,6.23
2018-01-30T14:49:56.943Z,5.30
2018-01-30T14:52:25.135Z,6.43
2018-01-30T14:54:53.339Z,5.40
2018-01-30T14:57:20.790Z,5.10
2018-01-30T14:59:48.207Z,5.63
2018-01-30T15:02:16.423Z,5.27
2018-01-30T15:04:43.881Z,4.70
2018-01-30T15:07:11.303Z,5.40
2018-01-30T15:09:39.585Z,4.67
2018-01-30T15:12:06.970Z,5.13
2018-01-30T15:14:34.432Z,5.77
2018-01-30T15:17:01.856Z,5.43
2018-01-30T15:19:30.163Z,4.67
2018-01-30T15:21:57.630Z,5.00
2018-01-30T15:24:25.056Z,4.30
2018-01-30T15:26:52.736Z,5.37
2018-01-30T15:29:20.200Z,6.33
2018-01-30T15:31:47.633Z,4.73
2018-01-30T15:34:15.116Z,3.90
2018-01-30T15:36:42.580Z,3.87
2018-01-30T15:39:10.033Z,3.50
2018-01-30T15:41:37.470Z,3.93
2018-01-30T15:44:04.944Z,3.37
2018-01-30T15:46:32.412Z,3.90
2018-01-30T15:48:59.968Z,4.70
2018-01-30T15:51:27.422Z,3.77
2018-01-30T15:53:54.868Z,4.50
2018-01-30T15:56:22.304Z,4.03
2018-01-30T15:58:49.866Z,3.73
2018-01-30T16:01:18.263Z,4.10
2018-01-30T16:03:45.728Z,4.73
2018-01-30T16:06:13.156Z,4.17
2018-01-30T16:08:40.584Z,3.47
2018-01-30T16:11:08.779Z,4.07
2018-01-30T16:13:37.000Z,4.20
2018-01-30T16:16:04.440Z,4.13
2018-01-30T16:18:31.900Z,4.30
2018-01-30T16:20:59.364Z,3.90
2018-01-30T16:23:26.796Z,3.83
2018-01-30T16:25:54.480Z,4.60
2018-01-30T16:28:21.949Z,4.40
2018-01-30T16:30:50.692Z,5.90
2018-01-30T16:33:19.098Z,5.23
2018-01-30T16:35:46.504Z,4.47
2018-01-30T16:38:14.744Z,5.30
2018-01-30T16:40:42.187Z,4.00
2018-01-30T16:43:09.608Z,4.73
2018-01-30T16:45:37.811Z,4.87
2018-01-30T16:48:05.317Z,5.67
2018-01-30T16:50:32.729Z,5.03
2018-01-30T16:53:00.149Z,5.27
2018-01-30T16:55:28.712Z,7.33
2018-01-30T16:57:56.136Z,6.73
2018-01-30T17:00:23.568Z,7.47
2018-01-30T17:02:51.004Z,6.90
2018-01-30T17:05:19.205Z,7.07
2018-01-30T17:07:46.628Z,5.90
2018-01-30T17:10:14.858Z,6.40
2018-01-30T17:12:42.287Z,6.00
2018-01-30T17:15:09.712Z,6.57
2018-01-30T17:17:37.919Z,8.90
2018-01-30T17:20:05.400Z,9.10
2018-01-30T17:22:32.823Z,9.30
2018-01-30T17:25:00.268Z,9.47
2018-01-30T17:27:28.500Z,8.53
2018-01-30T17:29:55.928Z,9.17
2018-01-30T17:32:23.708Z,7.70
2018-01-30T17:34:51.268Z,9.63
2018-01-30T17:37:18.696Z,10.60
2018-01-30T17:39:46.188Z,9.23
2018-01-30T17:42:13.737Z,8.20
2018-01-30T17:44:41.908Z,8.63
2018-01-30T17:47:15.685Z,8.50
2018-01-30T17:49:43.910Z,7.53
2018-01-30T17:52:11.331Z,7.43
2018-01-30T17:54:38.767Z,7.90
2018-01-30T17:57:06.961Z,7.33
2018-01-30T17:59:34.389Z,8.13
2018-01-30T18:02:02.596Z,8.83
2018-01-30T18:04:30.053Z,9.50
2018-01-30T18:06:57.481Z,8.27
2018-01-30T18:09:25.676Z,9.17
2018-01-30T18:11:53.103Z,10.30
2018-01-30T18:14:20.606Z,10.63
2018-01-30T18:16:48.077Z,10.87
2018-01-30T18:19:15.508Z,10.70
2018-01-30T18:21:42.982Z,12.27
2018-01-30T18:24:10.448Z,11.30
2018-01-30T18:26:37.888Z,11.77
2018-01-30T18:29:05.360Z,13.20
2018-01-30T18:31:32.822Z,13.37
2018-01-30T18:34:00.288Z,12.53
2018-01-30T18:36:27.716Z,11.70
2018-01-30T18:38:55.460Z,12.73
2018-01-30T18:41:24.000Z,13.23
2018-01-30T18:43:51.430Z,14.33
2018-01-30T18:46:18.868Z,13.57
2018-01-30T18:48:46.302Z,14.23
2018-01-30T18:51:14.593Z,13.93
2018-01-30T18:53:42.290Z,13.93
2018-01-30T18:56:09.748Z,15.67
2018-01-30T18:58:37.184Z,15.97
2018-01-30T19:01:04.676Z,14.07
2018-01-30T19:03:32.125Z,14.90
2018-01-30T19:05:59.605Z,17.13
2018-01-30T19:08:27.187Z,20.30
2018-01-30T19:10:54.635Z,18.63
2018-01-30T19:13:22.152Z,19.10
2018-01-30T19:15:49.580Z,19.07
2018-01-30T19:18:17.072Z,19.00
2018-01-30T19:20:44.504Z,18.53
2018-01-30T19:23:11.940Z,18.20
2018-01-30T19:25:40.155Z,18.50
2018-01-30T19:28:07.618Z,18.00
2018-01-30T19:30:35.060Z,19.30
2018-01-30T19:33:02.484Z,20.43
2018-01-30T19:35:30.700Z,18.80
2018-01-30T19:37:58.475Z,19.23
2018-01-30T19:40:25.916Z,19.53
2018-01-30T19:42:53.369Z,19.30
2018-01-30T19:45:21.756Z,18.30
2018-01-30T19:47:49.224Z,19.50
2018-01-30T19:50:16.672Z,18.50
2018-01-30T19:52:44.129Z,18.93
2018-01-30T19:55:11.564Z,19.10
2018-01-30T19:57:39.044Z,17.70
2018-01-30T20:00:06.497Z,19.37
2018-01-30T20:02:33.956Z,19.80
2018-01-30T20:05:01.445Z,19.67
2018-01-30T20:07:29.176Z,21.57
2018-01-30T20:09:56.608Z,19.43
2018-01-30T20:12:24.096Z,19.90
2018-01-30T20:14:51.549Z,19.93
2018-01-30T20:17:24.588Z,21.73
2018-01-30T20:19:52.792Z,21.23
2018-01-30T20:22:20.237Z,20.63
2018-01-30T20:24:47.748Z,20.40
2018-01-30T20:27:15.185Z,20.47
2018-01-30T20:29:42.628Z,21.53
2018-01-30T20:32:10.823Z,20.50
2018-01-30T20:34:38.252Z,21.03
2018-01-30T20:37:07.066Z,21.27
2018-01-30T20:39:34.520Z,21.27
2018-01-30T20:42:02.304Z,23.70
2018-01-30T20:44:29.858Z,25.13
2018-01-30T20:46:57.313Z,23.53
2018-01-30T20:49:24.738Z,23.67
2018-01-30T20:51:52.945Z,25.63
2018-01-30T20:54:20.408Z,26.80
2018-01-30T20:56:47.888Z,27.30
2018-01-30T20:59:15.427Z,26.50
2018-01-30T21:01:42.884Z,27.37
2018-01-30T21:04:10.357Z,27.17
2018-01-30T21:06:37.791Z,27.70
2018-01-30T21:09:05.239Z,27.50
2018-01-30T21:11:32.712Z,27.87
2018-01-30T21:14:00.172Z,26.70
2018-01-30T21:16:27.604Z,27.20
2018-01-30T21:18:55.092Z,26.70
2018-01-30T21:21:22.547Z,28.17
2018-01-30T21:23:49.972Z,26.83
2018-01-30T21:26:17.432Z,27.73
2018-01-30T21:28:44.864Z,26.53
2018-01-30T21:31:13.058Z,28.57
2018-01-30T21:33:40.543Z,27.53
2018-01-30T21:36:07.996Z,28.17
2018-01-30T21:38:35.459Z,27.07
2018-01-30T21:41:02.917Z,27.90
2018-01-30T21:43:30.439Z,28.73
2018-01-30T21:45:57.928Z,29.33
2018-01-30T21:48:25.366Z,28.93
2018-01-30T21:50:52.808Z,27.27
2018-01-30T21:53:20.291Z,29.83
2018-01-30T21:55:48.480Z,29.57
2018-01-30T21:58:15.927Z,30.17
2018-01-30T22:00:43.413Z,30.93
2018-01-30T22:03:10.864Z,29.77
2018-01-30T22:05:38.280Z,30.60
2018-01-30T22:08:05.772Z,29.30
2018-01-30T22:10:33.618Z,30.30
2018-01-30T22:13:01.796Z,27.90
2018-01-30T22:15:29.215Z,26.67
2018-01-30T22:17:57.752Z,29.93
2018-01-30T22:20:25.191Z,27.57
2018-01-30T22:22:52.611Z,29.07
2018-01-30T22:25:20.828Z,30.43
2018-01-30T22:27:48.383Z,28.07
2018-01-30T22:30:15.837Z,26.93
2018-01-30T22:32:43.298Z,27.60
2018-01-30T22:35:10.727Z,27.27
2018-01-30T22:37:38.155Z,27.43
2018-01-30T22:40:05.592Z,25.70
2018-01-30T22:42:33.228Z,27.13
2018-01-30T22:45:00.675Z,27.30
